Time;durP1;ratioP1;P1;durP2;ratioP2;P2;SDS_P1;SDS_P2;PMS_P1;PMS_P2;Temp;Humidity;BMP_temperature;BMP_pressure;BME280_temperature;BME280_humidity;BME280_pressure;Samples;Min_cycle;Max_cycle;Signal;HPM_P1;HPM_P2
2021/03/21 00:01:36;;;;;;;17.43;15.47;;;6.90;99.90;;;;;;5089234;28;20203;-64
2021/03/21 00:04:02;;;;;;;17.97;16.17;;;6.90;99.90;;;;;;5088241;28;20435;-64
2021/03/21 00:06:27;;;;;;;16.40;14.80;;;6.80;99.90;;;;;;5088394;28;20959;-64
2021/03/21 00:08:53;;;;;;;17.30;15.60;;;6.80;99.90;;;;;;5071089;28;20496;-64
2021/03/21 00:11:19;;;;;;;18.20;15.97;;;6.80;99.90;;;;;;5089177;28;20182;-64
2021/03/21 00:13:44;;;;;;;17.67;15.93;;;6.80;99.90;;;;;;5079823;28;20163;-64
2021/03/21 00:16:10;;;;;;;17.80;16.00;;;6.80;99.90;;;;;;5075573;28;20205;-64
2021/03/21 00:18:39;;;;;;;18.63;16.60;;;6.70;99.90;;;;;;5075657;28;20270;-64
2021/03/21 00:21:06;;;;;;;18.97;17.10;;;6.70;99.90;;;;;;5074606;28;20215;-64
2021/03/21 00:23:32;;;;;;;20.13;18.13;;;6.70;99.90;;;;;;5075332;28;20402;-64
2021/03/21 00:25:59;;;;;;;19.87;17.97;;;6.70;99.90;;;;;;5075579;28;20395;-64
2021/03/21 00:28:28;;;;;;;19.03;17.23;;;6.70;99.90;;;;;;5074318;28;20247;-64
2021/03/21 00:30:55;;;;;;;22.03;19.93;;;6.70;99.90;;;;;;5075377;28;20390;-64
2021/03/21 00:33:24;;;;;;;22.97;20.70;;;6.70;99.90;;;;;;5075433;28;20464;-64
2021/03/21 00:35:51;;;;;;;22.37;20.17;;;6.60;99.90;;;;;;5074232;28;20422;-64
2021/03/21 00:38:22;;;;;;;22.47;20.17;;;6.60;99.90;;;;;;5075456;28;20477;-64
2021/03/21 00:40:49;;;;;;;24.10;21.80;;;6.60;99.90;;;;;;5075354;28;20390;-64
2021/03/21 00:43:14;;;;;;;24.60;22.00;;;6.60;99.90;;;;;;5075321;28;20486;-64
2021/03/21 00:45:40;;;;;;;26.93;24.17;;;6.60;99.90;;;;;;5074971;28;20520;-64
2021/03/21 00:48:11;;;;;;;25.10;22.53;;;6.60;99.90;;;;;;5075160;28;20756;-64
2021/03/21 00:50:37;;;;;;;25.73;23.17;;;6.50;99.90;;;;;;5074026;28;20186;-65
2021/03/21 00:53:03;;;;;;;24.93;22.47;;;6.50;99.90;;;;;;5074967;28;20434;-64
2021/03/21 00:55:28;;;;;;;26.03;23.07;;;6.50;99.90;;;;;;5074878;28;20485;-64
2021/03/21 00:57:54;;;;;;;27.17;24.37;;;6.50;99.90;;;;;;5074841;28;20195;-64
2021/03/21 01:02:56;;;;;;;26.23;23.63;;;6.50;99.90;;;;;;5117115;27;20522;-64
2021/03/21 01:07:58;;;;;;;26.83;24.03;;;6.50;99.90;;;;;;5152055;27;20510;-65
2021/03/21 01:10:29;;;;;;;26.00;23.40;;;6.50;99.90;;;;;;5152174;27;20384;-65
2021/03/21 01:12:56;;;;;;;27.20;24.47;;;6.50;99.90;;;;;;5151869;27;20447;-65
2021/03/21 01:15:23;;;;;;;25.90;23.17;;;6.50;99.90;;;;;;5151940;27;20378;-65
2021/03/21 01:17:50;;;;;;;28.50;25.63;;;6.50;99.90;;;;;;5133450;27;20413;-65
2021/03/21 01:20:19;;;;;;;27.17;24.37;;;6.50;99.90;;;;;;5151865;27;20407;-65
2021/03/21 01:22:45;;;;;;;27.80;24.90;;;6.50;99.90;;;;;;5152028;27;20795;-65
2021/03/21 01:25:11;;;;;;;27.37;24.47;;;6.50;99.90;;;;;;5151659;27;20454;-65
2021/03/21 01:27:37;;;;;;;30.30;24.97;;;6.50;99.90;;;;;;5151768;27;20522;-65
2021/03/21 01:30:04;;;;;;;27.83;24.93;;;6.50;99.90;;;;;;5151715;27;20890;-65
2021/03/21 01:32:30;;;;;;;29.47;26.47;;;6.50;99.90;;;;;;5151594;27;20243;-65
2021/03/21 01:34:55;;;;;;;29.40;26.40;;;6.50;99.90;;;;;;5151718;27;20940;-65
2021/03/21 01:37:21;;;;;;;30.00;26.80;;;6.50;99.90;;;;;;5151219;27;20539;-65
2021/03/21 01:39:46;;;;;;;31.27;27.93;;;6.50;99.90;;;;;;5151293;27;20162;-65
2021/03/21 01:42:14;;;;;;;30.80;27.50;;;6.50;99.90;;;;;;5151326;27;20153;-65
2021/03/21 01:44:40;;;;;;;31.80;28.50;;;6.50;99.90;;;;;;5151563;27;20230;-65
2021/03/21 01:49:46;;;;;;;34.53;29.57;;;6.50;99.90;;;;;;5111027;27;20502;-64
2021/03/21 01:52:37;;;;;;;37.87;31.90;;;6.50;99.90;;;;;;5109770;28;20391;-64
2021/03/21 01:55:08;;;;;;;38.90;33.40;;;6.50;99.90;;;;;;5089075;28;20393;-64
2021/03/21 01:57:34;;;;;;;40.50;33.97;;;6.50;99.90;;;;;;5090555;28;20421;-63
2021/03/21 02:00:00;;;;;;;44.47;33.90;;;6.50;99.90;;;;;;5090684;28;20428;-64
2021/03/21 02:02:26;;;;;;;38.23;33.87;;;6.50;99.90;;;;;;5089205;28;20898;-64
2021/03/21 02:04:51;;;;;;;40.33;35.10;;;6.50;99.90;;;;;;5090359;28;20198;-64
2021/03/21 02:10:41;;;;;;;47.50;36.33;;;6.40;99.90;;;;;;5102120;27;20559;-65
2021/03/21 02:13:15;;;;;;;43.47;35.00;;;6.40;99.90;;;;;;5089607;28;20444;-64
2021/03/21 02:15:50;;;;;;;43.17;35.27;;;6.40;99.90;;;;;;5090671;28;20388;-64
2021/03/21 02:21:38;;;;;;;41.03;35.47;;;6.40;99.90;;;;;;5110868;27;20493;-63
2021/03/21 02:24:44;;;;;;;42.53;36.47;;;6.40;99.90;;;;;;5109901;28;20384;-63
2021/03/21 02:35:39;;;;;;;41.17;35.03;;;6.50;99.90;;;;;;5131391;27;20512;-64
2021/03/21 02:38:11;;;;;;;42.97;35.27;;;6.40;99.90;;;;;;5131332;27;20392;-65
2021/03/21 02:40:44;;;;;;;39.63;33.93;;;6.40;99.90;;;;;;5131321;27;20398;-64
2021/03/21 02:43:20;;;;;;;38.70;31.80;;;6.40;99.90;;;;;;5131235;27;20392;-64
2021/03/21 02:45:50;;;;;;;37.13;31.90;;;6.40;99.90;;;;;;5110652;28;20515;-64
2021/03/21 02:48:25;;;;;;;37.20;28.80;;;6.40;99.90;;;;;;5092654;28;20397;-64
2021/03/21 02:51:00;;;;;;;34.30;29.80;;;6.40;99.90;;;;;;5110463;28;20948;-64
2021/03/21 02:53:50;;;;;;;30.30;26.37;;;6.40;99.90;;;;;;5109156;28;20515;-64
2021/03/21 02:56:22;;;;;;;27.77;24.13;;;6.40;99.90;;;;;;5110542;28;20877;-64
2021/03/21 02:58:52;;;;;;;29.97;25.17;;;6.40;99.90;;;;;;5110278;28;20393;-64
2021/03/21 03:01:23;;;;;;;28.20;23.83;;;6.40;99.90;;;;;;5111143;28;20409;-64
2021/03/21 03:03:53;;;;;;;28.40;24.63;;;6.30;99.90;;;;;;5110332;28;20407;-64
2021/03/21 03:06:27;;;;;;;26.93;22.43;;;6.30;99.90;;;;;;5109085;28;20426;-64
2021/03/21 03:08:59;;;;;;;27.27;23.17;;;6.40;99.90;;;;;;5110220;28;20403;-64
2021/03/21 03:14:03;;;;;;;28.53;25.00;;;6.30;99.90;;;;;;5131180;27;20915;-64
2021/03/21 03:16:59;;;;;;;26.73;22.07;;;6.40;99.90;;;;;;5131299;27;20384;-64
2021/03/21 03:19:51;;;;;;;29.87;23.47;;;6.40;99.90;;;;;;5130680;28;20392;-65
2021/03/21 03:22:40;;;;;;;26.07;21.47;;;6.40;99.90;;;;;;5130439;28;20388;-64
2021/03/21 03:28:10;;;;;;;22.50;19.03;;;6.40;99.90;;;;;;5110869;27;21020;-65
2021/03/21 03:30:45;;;;;;;22.10;18.33;;;6.30;99.90;;;;;;5095872;28;20481;-64
2021/03/21 03:33:10;;;;;;;22.67;19.87;;;6.30;99.90;;;;;;5110594;28;20392;-64
2021/03/21 03:35:36;;;;;;;25.90;18.77;;;6.30;99.90;;;;;;5098940;28;20405;-64
2021/03/21 03:38:05;;;;;;;19.27;16.70;;;6.30;99.90;;;;;;5090312;28;20209;-65
2021/03/21 03:40:31;;;;;;;21.70;18.10;;;6.30;99.90;;;;;;5090425;28;20158;-64
2021/03/21 03:56:42;;;;;;;20.97;18.40;;;6.30;99.90;;;;;;5090381;27;20521;-64
2021/03/21 04:01:56;;;;;;;23.40;18.90;;;6.30;99.90;;;;;;5131232;27;20557;-64
2021/03/21 04:04:49;;;;;;;21.13;18.83;;;6.30;99.90;;;;;;5131463;27;20396;-64
2021/03/21 04:10:09;;;;;;;23.00;19.70;;;6.30;99.90;;;;;;5096343;27;20507;-64
2021/03/21 04:12:43;;;;;;;23.43;19.33;;;6.30;99.90;;;;;;5090623;28;20430;-64
2021/03/21 04:15:15;;;;;;;22.90;19.13;;;6.30;99.90;;;;;;5090529;28;20435;-64
2021/03/21 04:18:03;;;;;;;26.20;20.83;;;6.30;99.90;;;;;;5089328;28;20487;-64
2021/03/21 04:20:35;;;;;;;23.20;18.53;;;6.40;99.90;;;;;;5089247;28;20391;-64
2021/03/21 04:23:10;;;;;;;20.27;16.93;;;6.30;99.90;;;;;;5089408;28;20408;-64
2021/03/21 04:25:41;;;;;;;19.10;16.37;;;6.30;99.90;;;;;;5089962;28;20405;-64
2021/03/21 04:28:15;;;;;;;20.93;17.63;;;6.30;99.90;;;;;;5090024;28;20457;-64
2021/03/21 04:30:46;;;;;;;20.87;17.33;;;6.30;99.90;;;;;;5090122;28;20463;-64
2021/03/21 04:33:17;;;;;;;20.70;18.20;;;6.30;99.90;;;;;;5088790;28;20438;-64
2021/03/21 04:36:08;;;;;;;20.50;17.43;;;6.30;99.90;;;;;;5088679;28;20394;-64
2021/03/21 04:41:16;;;;;;;23.33;19.53;;;6.30;99.90;;;;;;5110877;27;20555;-65
2021/03/21 04:43:48;;;;;;;23.93;21.03;;;6.30;99.90;;;;;;5089007;28;20948;-65
2021/03/21 04:46:29;;;;;;;21.00;18.80;;;6.30;99.90;;;;;;5078084;28;20415;-65
2021/03/21 04:48:56;;;;;;;24.30;20.30;;;6.20;99.90;;;;;;5090318;28;20382;-65
2021/03/21 04:51:27;;;;;;;23.23;20.33;;;6.20;99.90;;;;;;5090451;28;20391;-65
2021/03/21 04:54:00;;;;;;;23.60;20.37;;;6.20;99.90;;;;;;5088946;28;20390;-65
2021/03/21 04:56:34;;;;;;;23.60;20.40;;;6.20;99.90;;;;;;5090183;28;20505;-65
2021/03/21 04:59:10;;;;;;;27.33;21.60;;;6.20;99.90;;;;;;5090246;28;20389;-65
2021/03/21 05:01:42;;;;;;;23.90;20.70;;;6.20;99.90;;;;;;5090621;28;20988;-65
2021/03/21 05:04:17;;;;;;;24.87;22.27;;;6.20;99.90;;;;;;5090427;28;20390;-65
2021/03/21 05:06:49;;;;;;;25.00;21.77;;;6.20;99.90;;;;;;5090191;28;20395;-65
2021/03/21 05:09:23;;;;;;;24.23;21.60;;;6.20;99.90;;;;;;5089938;28;20805;-65
2021/03/21 05:12:00;;;;;;;30.43;23.60;;;6.20;99.90;;;;;;5090247;28;20412;-65
2021/03/21 05:20:12;;;;;;;31.20;25.33;;;6.20;99.90;;;;;;5090679;28;20519;-64
2021/03/21 05:22:43;;;;;;;30.40;26.23;;;6.20;99.90;;;;;;5089528;28;20482;-64
2021/03/21 05:25:21;;;;;;;32.20;27.17;;;6.20;99.90;;;;;;5089676;28;20449;-64
2021/03/21 05:27:58;;;;;;;30.03;26.30;;;6.20;99.90;;;;;;5089166;28;20504;-64
2021/03/21 05:30:27;;;;;;;31.07;26.07;;;6.20;99.90;;;;;;5090206;28;20400;-65
2021/03/21 05:32:52;;;;;;;30.17;26.00;;;6.20;99.90;;;;;;5090569;28;20432;-64
2021/03/21 05:35:24;;;;;;;27.30;23.30;;;6.20;99.90;;;;;;5089896;28;20917;-64
2021/03/21 05:38:07;;;;;;;27.60;24.00;;;6.20;99.90;;;;;;5088961;28;20483;-64
2021/03/21 06:00:24;;;;;;;27.03;22.67;;;6.20;99.90;;;;;;5131382;27;20507;-64
2021/03/21 06:11:10;;;;;;;26.93;23.00;;;6.30;99.90;;;;;;5131575;27;20888;-64
2021/03/21 06:16:50;;;;;;;28.20;23.77;;;6.40;99.90;;;;;;5090750;28;20575;-64
2021/03/21 06:27:59;;;;;;;23.80;20.37;;;6.40;99.90;;;;;;5111149;27;20519;-64
2021/03/21 06:31:00;;;;;;;23.50;20.97;;;6.40;99.90;;;;;;5111578;28;20401;-64
2021/03/21 06:33:54;;;;;;;23.90;21.13;;;6.50;99.90;;;;;;5110334;28;20395;-64
2021/03/21 06:39:29;;;;;;;25.10;22.27;;;6.50;99.90;;;;;;5131528;27;21057;-64
2021/03/21 06:42:11;;;;;;;27.30;23.87;;;6.50;99.90;;;;;;5126058;28;20407;-64
2021/03/21 06:48:07;;;;;;;27.93;23.50;;;6.50;99.90;;;;;;5090826;28;20568;-64
2021/03/21 06:59:45;;;;;;;18.37;16.47;;;6.70;99.90;;;;;;5063560;28;20532;-64
2021/03/21 07:16:24;;;;;;;18.63;15.43;;;6.90;99.90;;;;;;5086440;28;20573;-65
2021/03/21 07:19:21;;;;;;;18.00;15.80;;;7.00;99.90;;;;;;5049335;28;20883;-65
2021/03/21 07:31:02;;;;;;;15.17;13.67;;;7.20;99.90;;;;;;5131539;27;20511;-65
2021/03/21 07:33:40;;;;;;;15.30;12.63;;;7.30;99.90;;;;;;5121171;27;20442;-65
2021/03/21 07:47:25;;;;;;;15.50;13.03;;;7.40;99.90;;;;;;5131412;27;20523;-64
2021/03/21 07:50:19;;;;;;;13.90;12.57;;;7.50;99.90;;;;;;5125297;28;20539;-64
2021/03/21 07:58:12;;;;;;;14.40;12.90;;;7.50;99.90;;;;;;5131525;27;20534;-64
2021/03/21 08:00:39;;;;;;;12.47;11.27;;;7.50;99.90;;;;;;5131376;27;20383;-64
2021/03/21 08:03:22;;;;;;;13.03;11.40;;;7.60;99.90;;;;;;5131368;27;20932;-64
2021/03/21 08:05:51;;;;;;;8.67;7.80;;;7.60;99.90;;;;;;5131448;27;20459;-64
2021/03/21 08:08:24;;;;;;;8.57;7.67;;;7.60;99.90;;;;;;5112730;28;20923;-64
2021/03/21 08:10:55;;;;;;;8.37;7.00;;;7.60;99.90;;;;;;5111059;28;20472;-64
2021/03/21 08:16:15;;;;;;;7.50;6.07;;;7.70;99.90;;;;;;5131374;27;20525;-64
2021/03/21 08:18:44;;;;;;;5.97;5.37;;;7.80;99.90;;;;;;5130550;28;20888;-64
2021/03/21 08:21:29;;;;;;;5.93;5.27;;;8.00;99.90;;;;;;5131721;28;20792;-64
2021/03/21 08:24:01;;;;;;;5.40;4.90;;;8.20;99.90;;;;;;5122990;28;20395;-64
2021/03/21 08:26:30;;;;;;;6.10;4.47;;;8.30;99.90;;;;;;5109698;28;20471;-64
2021/03/21 08:34:30;;;;;;;7.13;3.53;;;8.40;99.90;;;;;;5131902;27;20879;-64
2021/03/21 08:36:57;;;;;;;4.40;4.00;;;8.30;99.90;;;;;;5131488;28;20411;-64
2021/03/21 08:39:44;;;;;;;3.83;3.53;;;8.20;99.90;;;;;;5131469;28;20459;-64
2021/03/21 08:42:31;;;;;;;4.10;3.80;;;8.20;99.90;;;;;;5114066;28;20396;-64
2021/03/21 08:48:05;;;;;;;3.70;3.40;;;8.30;99.90;;;;;;5131716;27;20553;-64
2021/03/21 08:50:36;;;;;;;7.47;3.47;;;8.20;99.90;;;;;;5131486;28;20391;-64
2021/03/21 08:53:02;;;;;;;4.07;3.37;;;8.20;99.90;;;;;;5131593;28;20416;-64
2021/03/21 08:58:25;;;;;;;3.90;3.43;;;8.20;99.90;;;;;;5124359;27;20532;-64
2021/03/21 09:00:50;;;;;;;4.53;3.63;;;8.20;99.90;;;;;;5109786;28;20446;-64
2021/03/21 09:03:19;;;;;;;4.33;3.60;;;8.20;99.90;;;;;;5110883;28;20393;-64
2021/03/21 09:05:54;;;;;;;3.90;3.60;;;8.20;99.90;;;;;;5111130;28;20153;-64
2021/03/21 09:08:25;;;;;;;5.03;3.77;;;8.10;99.90;;;;;;5109648;28;20390;-64
2021/03/21 09:10:54;;;;;;;5.97;4.73;;;8.00;99.90;;;;;;5109414;28;20389;-64
2021/03/21 09:13:22;;;;;;;7.10;4.80;;;7.90;99.90;;;;;;5109412;28;20441;-64
2021/03/21 09:16:02;;;;;;;5.93;4.30;;;8.00;99.90;;;;;;5110613;28;20411;-64
2021/03/21 09:18:35;;;;;;;5.20;4.30;;;7.90;99.90;;;;;;5110393;28;20423;-64
2021/03/21 09:21:15;;;;;;;7.13;5.30;;;8.00;99.90;;;;;;5109752;28;20388;-64
2021/03/21 09:26:43;;;;;;;8.47;4.90;;;7.90;99.90;;;;;;5131444;27;21019;-64
2021/03/21 09:32:05;;;;;;;9.60;4.60;;;7.90;99.90;;;;;;5104539;27;21057;-64
2021/03/21 09:37:11;;;;;;;7.90;3.13;;;7.90;99.90;;;;;;5131527;27;21053;-64
2021/03/21 09:39:42;;;;;;;8.43;2.90;;;8.00;99.90;;;;;;5131666;28;20397;-64
2021/03/21 09:42:13;;;;;;;9.17;3.33;;;8.10;99.90;;;;;;5130367;28;20386;-64
2021/03/21 09:44:44;;;;;;;14.63;3.67;;;8.30;99.90;;;;;;5131306;28;20387;-64
2021/03/21 09:53:37;;;;;;;11.57;3.63;;;8.40;99.90;;;;;;5131507;27;20565;-64
2021/03/21 09:56:15;;;;;;;8.83;3.13;;;8.40;99.90;;;;;;5130512;28;20411;-64
2021/03/21 09:58:49;;;;;;;6.10;3.20;;;8.30;99.90;;;;;;5131417;28;20383;-64
2021/03/21 10:04:03;;;;;;;11.03;3.80;;;8.30;99.90;;;;;;5111254;27;20513;-64
2021/03/21 10:06:35;;;;;;;12.77;4.80;;;8.40;99.90;;;;;;5100631;28;20960;-64
2021/03/21 10:09:23;;;;;;;10.20;4.20;;;8.50;99.90;;;;;;5090683;28;20415;-63
2021/03/21 10:11:52;;;;;;;18.57;4.80;;;8.60;99.90;;;;;;5089701;28;20388;-65
2021/03/21 10:16:59;;;;;;;7.90;3.20;;;8.70;99.90;;;;;;5131592;27;20505;-64
2021/03/21 10:24:59;;;;;;;13.40;4.40;;;8.90;99.90;;;;;;5131425;27;21071;-64
2021/03/21 10:32:48;;;;;;;13.57;4.67;;;9.00;99.90;;;;;;5131882;27;20508;-65
2021/03/21 10:38:31;;;;;;;8.10;4.23;;;9.10;99.90;;;;;;5111002;27;20509;-64
2021/03/21 10:40:57;;;;;;;12.47;4.33;;;9.10;99.90;;;;;;5095693;28;20404;-65
2021/03/21 10:45:59;;;;;;;16.00;4.47;;;9.20;99.90;;;;;;5111275;27;21065;-64
2021/03/21 11:01:32;;;;;;;14.77;5.53;;;9.30;99.90;;;;;;5111255;27;20503;-64
2021/03/21 11:06:47;;;;;;;12.47;4.93;;;9.20;99.90;;;;;;5131408;27;20538;-65
2021/03/21 11:09:17;;;;;;;20.90;5.90;;;9.30;99.90;;;;;;5131373;28;20395;-64
2021/03/21 11:11:46;;;;;;;18.17;6.30;;;9.20;99.90;;;;;;5130132;28;20476;-65
2021/03/21 11:14:17;;;;;;;15.97;5.50;;;9.10;99.90;;;;;;5122012;28;20489;-64
2021/03/21 11:19:42;;;;;;;20.30;6.70;;;9.10;99.90;;;;;;5131501;27;20511;-65
2021/03/21 11:24:55;;;;;;;19.70;7.23;;;8.90;99.90;;;;;;5131464;27;20522;-64
2021/03/21 11:27:34;;;;;;;23.83;7.13;;;8.90;99.90;;;;;;5131625;28;20372;-64
2021/03/21 11:30:26;;;;;;;17.83;6.40;;;9.00;99.90;;;;;;5130380;28;20203;-64
2021/03/21 11:32:52;;;;;;;19.00;6.53;;;9.10;99.90;;;;;;5109787;28;20424;-65
2021/03/21 11:37:59;;;;;;;16.67;5.87;;;9.20;99.90;;;;;;5131432;27;20870;-65
2021/03/21 11:40:28;;;;;;;16.57;5.50;;;9.50;99.90;;;;;;5130195;28;20404;-65
2021/03/21 11:45:53;;;;;;;23.20;5.10;;;9.60;99.90;;;;;;5090466;27;20579;-64
2021/03/21 11:51:00;;;;;;;19.40;6.93;;;9.60;99.90;;;;;;5131562;27;20521;-66
2021/03/21 11:53:32;;;;;;;14.00;5.90;;;9.60;99.90;;;;;;5130206;28;20455;-66
2021/03/21 11:56:37;;;;;;;13.57;5.47;;;9.50;99.90;;;;;;5131588;28;20382;-66
2021/03/21 11:59:11;;;;;;;29.77;6.27;;;9.60;99.90;;;;;;5130347;28;20425;-64
2021/03/21 12:01:50;;;;;;;11.33;5.23;;;9.70;99.90;;;;;;5131204;28;20401;-65
2021/03/21 12:04:31;;;;;;;16.90;6.27;;;9.60;99.90;;;;;;5131077;28;20394;-64
2021/03/21 12:06:58;;;;;;;17.93;6.23;;;9.60;99.90;;;;;;5110814;28;20407;-65
2021/03/21 12:12:05;;;;;;;16.77;6.90;;;9.70;99.90;;;;;;5131860;27;20515;-64
2021/03/21 12:20:29;;;;;;;20.90;6.30;;;9.60;99.90;;;;;;5131366;27;20510;-65
2021/03/21 12:22:55;;;;;;;18.50;6.80;;;9.50;99.90;;;;;;5115795;28;20555;-65
2021/03/21 12:28:13;;;;;;;24.13;8.37;;;9.30;99.90;;;;;;5110988;27;20871;-64
2021/03/21 12:30:58;;;;;;;20.90;7.90;;;9.30;99.90;;;;;;5110901;28;20395;-65
2021/03/21 12:46:54;;;;;;;12.63;5.53;;;9.60;99.90;;;;;;5131272;27;21095;-65
2021/03/21 12:54:54;;;;;;;19.40;6.70;;;9.70;99.90;;;;;;5131702;27;20529;-64
2021/03/21 12:57:20;;;;;;;25.13;6.83;;;9.80;99.90;;;;;;5113895;28;20403;-64
2021/03/21 12:59:49;;;;;;;15.47;5.90;;;9.90;99.90;;;;;;5110831;28;20630;-64
2021/03/21 13:02:27;;;;;;;22.70;6.27;;;10.00;99.90;;;;;;5111001;28;20390;-64
2021/03/21 13:04:54;;;;;;;19.57;7.70;;;10.10;99.90;;;;;;5111138;28;20384;-64
2021/03/21 13:07:22;;;;;;;16.37;6.73;;;10.20;99.90;;;;;;5109930;28;20503;-64
2021/03/21 13:09:48;;;;;;;16.70;6.83;;;10.20;99.90;;;;;;5109550;28;20423;-64
2021/03/21 13:12:14;;;;;;;26.13;8.37;;;10.20;99.90;;;;;;5111415;28;20417;-64
2021/03/21 13:14:40;;;;;;;24.77;7.37;;;10.20;99.90;;;;;;5110467;28;20662;-64
2021/03/21 13:17:06;;;;;;;18.10;6.00;;;10.10;99.90;;;;;;5118459;28;20414;-64
2021/03/21 13:19:31;;;;;;;17.87;6.60;;;10.10;99.90;;;;;;5130932;28;20161;-64
2021/03/21 13:21:57;;;;;;;15.77;5.50;;;10.20;99.90;;;;;;5131425;28;20635;-64
2021/03/21 13:24:23;;;;;;;23.30;5.90;;;10.20;99.90;;;;;;5130895;28;20161;-64
2021/03/21 13:26:49;;;;;;;19.43;6.57;;;10.30;99.90;;;;;;5130779;28;20176;-64
2021/03/21 13:29:15;;;;;;;17.40;6.43;;;10.30;99.90;;;;;;5130308;28;20394;-64
2021/03/21 13:31:40;;;;;;;17.20;5.60;;;10.30;99.90;;;;;;5130780;28;20410;-64
2021/03/21 13:34:06;;;;;;;18.40;6.30;;;10.30;99.90;;;;;;5130653;28;20270;-64
2021/03/21 13:36:32;;;;;;;20.53;6.43;;;10.30;99.90;;;;;;5131112;28;20156;-64
2021/03/21 13:38:57;;;;;;;23.63;5.87;;;10.30;99.90;;;;;;5130641;28;20154;-64
2021/03/21 13:41:23;;;;;;;18.20;6.50;;;10.30;99.90;;;;;;5130530;28;20521;-64
2021/03/21 13:43:49;;;;;;;20.40;5.80;;;10.20;99.70;;;;;;5131119;28;20172;-64
2021/03/21 13:46:14;;;;;;;16.87;5.97;;;10.30;99.40;;;;;;5130455;28;20193;-64
2021/03/21 13:48:40;;;;;;;19.23;6.50;;;10.30;98.00;;;;;;5110480;28;20684;-64
2021/03/21 13:51:06;;;;;;;13.27;5.90;;;10.30;98.30;;;;;;5110094;28;20178;-64
2021/03/21 13:53:32;;;;;;;16.63;6.33;;;10.30;98.00;;;;;;5109598;28;20316;-64
2021/03/21 13:56:01;;;;;;;13.53;5.57;;;10.30;98.50;;;;;;5110063;28;20392;-64
2021/03/21 13:58:27;;;;;;;17.13;7.23;;;10.40;97.90;;;;;;5108965;28;20170;-64
2021/03/21 14:00:53;;;;;;;17.87;7.10;;;10.40;99.10;;;;;;5108455;28;20449;-64
2021/03/21 14:03:20;;;;;;;20.53;6.40;;;10.50;99.70;;;;;;5109299;28;20159;-64
2021/03/21 14:05:48;;;;;;;12.30;6.10;;;10.50;97.90;;;;;;5099372;28;20404;-64
2021/03/21 14:08:14;;;;;;;16.13;6.37;;;10.60;97.90;;;;;;5096234;28;20401;-66
2021/03/21 14:10:39;;;;;;;23.17;6.40;;;10.60;97.20;;;;;;5096290;28;20895;-64
2021/03/21 14:13:06;;;;;;;17.80;5.80;;;10.60;97.00;;;;;;5095814;28;20278;-64
2021/03/21 14:15:34;;;;;;;19.00;7.70;;;10.50;98.50;;;;;;5094612;28;20147;-64
2021/03/21 14:17:59;;;;;;;22.37;7.07;;;10.50;98.30;;;;;;5094678;28;20408;-64
2021/03/21 14:20:29;;;;;;;16.87;5.77;;;10.60;98.40;;;;;;5097423;28;20396;-64
2021/03/21 14:22:55;;;;;;;27.63;7.60;;;10.50;97.70;;;;;;5116133;28;20161;-64
2021/03/21 14:25:22;;;;;;;22.10;7.30;;;10.40;97.80;;;;;;5115234;28;20427;-64
2021/03/21 14:27:49;;;;;;;22.50;7.03;;;10.30;98.40;;;;;;5116216;28;20391;-64
2021/03/21 14:30:16;;;;;;;18.53;6.37;;;10.30;97.60;;;;;;5116014;28;20884;-64
2021/03/21 14:32:41;;;;;;;20.03;5.10;;;10.20;97.90;;;;;;5116013;28;20424;-64
2021/03/21 14:35:08;;;;;;;21.23;6.73;;;10.20;97.90;;;;;;5115862;28;20380;-64
2021/03/21 14:37:34;;;;;;;22.33;6.60;;;10.20;99.00;;;;;;5114001;28;20186;-64
2021/03/21 14:40:00;;;;;;;19.23;6.90;;;10.20;98.40;;;;;;5115754;27;20474;-64
2021/03/21 14:42:26;;;;;;;19.40;6.07;;;10.20;97.40;;;;;;5115989;28;20158;-64
2021/03/21 14:44:52;;;;;;;18.40;5.53;;;10.20;97.40;;;;;;5115550;27;20880;-64
2021/03/21 14:47:17;;;;;;;24.60;6.30;;;10.20;96.10;;;;;;5115935;28;20202;-64
2021/03/21 14:49:43;;;;;;;22.50;6.60;;;10.10;96.20;;;;;;5115743;28;20410;-64
2021/03/21 14:52:09;;;;;;;22.73;5.80;;;10.10;95.60;;;;;;5116036;28;20164;-64
2021/03/21 14:54:34;;;;;;;14.87;5.33;;;10.00;95.90;;;;;;5112031;27;20570;-64
2021/03/21 14:57:00;;;;;;;21.63;5.57;;;9.90;97.80;;;;;;5095292;28;20207;-64
2021/03/21 14:59:26;;;;;;;19.57;6.87;;;9.90;98.10;;;;;;5094940;28;20234;-64
2021/03/21 15:01:51;;;;;;;18.90;7.27;;;9.90;98.20;;;;;;5095212;28;20158;-64
2021/03/21 15:04:17;;;;;;;19.20;6.20;;;9.80;97.80;;;;;;5095364;28;20173;-64
2021/03/21 15:06:42;;;;;;;22.30;6.30;;;9.80;98.00;;;;;;5095118;28;20591;-64
2021/03/21 15:09:08;;;;;;;16.53;6.37;;;9.80;98.80;;;;;;5094688;28;20158;-64
2021/03/21 15:11:34;;;;;;;24.00;7.13;;;9.80;98.60;;;;;;5095447;28;20173;-64
2021/03/21 15:13:59;;;;;;;19.10;6.60;;;9.80;99.00;;;;;;5094727;28;20670;-64
2021/03/21 15:16:25;;;;;;;12.83;5.47;;;9.70;98.70;;;;;;5093826;28;20166;-64
2021/03/21 15:18:51;;;;;;;18.70;6.93;;;9.60;99.20;;;;;;5095077;28;20162;-64
2021/03/21 15:21:17;;;;;;;16.80;6.07;;;9.50;99.50;;;;;;5093608;28;20303;-64
2021/03/21 15:23:45;;;;;;;15.87;5.93;;;9.50;98.00;;;;;;5094634;28;20458;-64
2021/03/21 15:26:13;;;;;;;22.47;7.03;;;9.50;98.60;;;;;;5094570;28;20153;-64
2021/03/21 15:28:40;;;;;;;19.17;6.33;;;9.50;98.90;;;;;;5096666;28;20419;-64
2021/03/21 15:33:45;;;;;;;20.73;7.40;;;9.50;99.50;;;;;;5131421;27;20517;-65
2021/03/21 15:36:11;;;;;;;20.10;6.63;;;9.40;99.90;;;;;;5131389;28;20387;-65
2021/03/21 15:38:36;;;;;;;26.37;7.67;;;9.40;99.90;;;;;;5131436;28;20251;-65
2021/03/21 15:41:02;;;;;;;25.67;8.00;;;9.40;99.90;;;;;;5131493;28;20472;-65
2021/03/21 15:43:28;;;;;;;22.33;6.97;;;9.30;99.90;;;;;;5131368;28;20176;-65
2021/03/21 15:45:53;;;;;;;22.57;5.73;;;9.40;99.90;;;;;;5124865;28;20200;-65
2021/03/21 15:48:19;;;;;;;25.63;7.80;;;9.30;99.90;;;;;;5109597;28;20167;-65
2021/03/21 15:50:45;;;;;;;18.93;8.10;;;9.30;99.90;;;;;;5110591;28;20483;-65
2021/03/21 15:53:14;;;;;;;20.63;6.23;;;9.20;99.90;;;;;;5110543;28;20188;-65
2021/03/21 15:55:40;;;;;;;25.00;8.43;;;9.10;99.90;;;;;;5109451;28;20777;-65
2021/03/21 15:58:05;;;;;;;22.80;8.40;;;9.00;99.90;;;;;;5110644;28;20410;-65
2021/03/21 16:00:34;;;;;;;20.70;6.40;;;8.90;99.90;;;;;;5110668;28;20157;-65
2021/03/21 16:03:01;;;;;;;17.50;6.87;;;8.80;99.90;;;;;;5111174;28;20528;-65
2021/03/21 16:05:27;;;;;;;20.30;7.97;;;8.70;99.90;;;;;;5109403;28;20887;-65
2021/03/21 16:07:53;;;;;;;25.80;7.57;;;8.70;99.90;;;;;;5109342;28;20425;-65
2021/03/21 16:10:22;;;;;;;19.07;6.47;;;8.60;99.90;;;;;;5110253;28;20474;-65
2021/03/21 16:12:48;;;;;;;27.10;7.03;;;8.60;99.90;;;;;;5110411;28;20900;-65
2021/03/21 16:15:16;;;;;;;22.07;6.17;;;8.60;99.90;;;;;;5110367;28;20386;-65
2021/03/21 16:17:43;;;;;;;21.00;7.23;;;8.60;99.90;;;;;;5109044;28;20220;-65
2021/03/21 16:20:10;;;;;;;20.20;6.60;;;8.60;99.90;;;;;;5117772;28;20419;-65
2021/03/21 16:22:36;;;;;;;23.20;7.50;;;8.50;99.90;;;;;;5129614;28;20918;-65
2021/03/21 16:25:04;;;;;;;24.13;7.17;;;8.50;99.90;;;;;;5130981;27;20472;-65
2021/03/21 16:27:30;;;;;;;18.60;6.87;;;8.40;99.90;;;;;;5130452;27;20400;-65
2021/03/21 16:29:56;;;;;;;19.67;7.33;;;8.40;99.90;;;;;;5130387;27;20399;-65
2021/03/21 16:32:22;;;;;;;19.83;7.03;;;8.30;99.90;;;;;;5130282;28;20280;-65
2021/03/21 16:34:49;;;;;;;25.50;8.37;;;8.30;99.90;;;;;;5129111;28;20387;-65
2021/03/21 16:37:15;;;;;;;24.77;7.30;;;8.30;99.90;;;;;;5129570;27;20422;-65
2021/03/21 16:39:40;;;;;;;22.97;7.33;;;8.20;99.90;;;;;;5129087;28;20452;-65
2021/03/21 16:42:07;;;;;;;19.90;7.10;;;8.20;99.90;;;;;;5130234;28;20388;-65
2021/03/21 16:44:33;;;;;;;21.33;8.03;;;8.20;99.90;;;;;;5118455;28;20733;-65
2021/03/21 16:46:59;;;;;;;19.70;6.40;;;8.20;99.90;;;;;;5115127;28;20469;-65
2021/03/21 16:49:25;;;;;;;22.47;7.00;;;8.10;99.90;;;;;;5116339;28;20627;-65
2021/03/21 16:51:50;;;;;;;29.50;7.37;;;8.10;99.90;;;;;;5116380;28;20531;-65
2021/03/21 16:54:16;;;;;;;22.27;8.07;;;8.10;99.90;;;;;;5115815;28;20170;-65
2021/03/21 16:56:41;;;;;;;15.60;7.47;;;8.10;99.90;;;;;;5116181;28;20159;-65
2021/03/21 16:59:07;;;;;;;16.50;6.53;;;8.10;99.90;;;;;;5116092;28;20752;-65
2021/03/21 17:01:35;;;;;;;25.73;7.70;;;8.00;99.90;;;;;;5116137;28;20608;-65
2021/03/21 17:04:02;;;;;;;18.40;7.27;;;7.90;99.90;;;;;;5116301;28;20179;-65
2021/03/21 17:06:27;;;;;;;22.90;8.03;;;7.90;99.90;;;;;;5116310;28;20388;-65
2021/03/21 17:08:53;;;;;;;21.60;8.00;;;7.90;99.90;;;;;;5114859;28;20400;-65
2021/03/21 17:11:18;;;;;;;18.53;6.93;;;7.80;99.90;;;;;;5115282;28;20207;-65
2021/03/21 17:13:44;;;;;;;20.40;7.03;;;7.70;99.90;;;;;;5115917;28;20189;-65
2021/03/21 17:16:09;;;;;;;19.20;7.23;;;7.70;99.90;;;;;;5116051;28;20158;-65
2021/03/21 17:18:35;;;;;;;26.97;8.70;;;7.60;99.90;;;;;;5095673;28;20159;-65
2021/03/21 17:21:01;;;;;;;25.80;7.53;;;7.60;99.90;;;;;;5095498;28;20211;-65
2021/03/21 17:23:27;;;;;;;17.87;7.80;;;7.60;99.90;;;;;;5095396;28;20163;-65